Latest Coastal Weather Observations for Gabo Island

IDT60701

Issued at 1:02 am EST Sunday 24 May 2015 (issued every 10 minutes, with the page automatically refreshed every 10 minutes)

About coastal observations | Map of coastal stations | Coastal observations for TAS | Marine services | Other Formats
Station Details ID: 084016 Name: GABO ISLAND LIGHTHOUSE Lat: -37.57 Lon: 149.92 Height: 15.2 m
Data from the previous 72 hours. | See also: Recent months at Gabo Island
Date/Time
EST
Temp

°C
Wind Pressure Rain
since 9am
mm
Weather Cloud Vis
km
Sea
Height
m
Swell
Dir
 
Speed
knots
Gust
knots
hPa Trend Height
m
Period
s
Dir
24/01:00am 12.3 W 18 24 1029.5 - 0.0 - - - - - - -
24/12:30am 12.1 W 18 21 1029.6 - 0.0 - - - - - - -
24/12:00am 12.2 W 19 22 1029.8 - 0.0 - - - - - - -
 
Date/Time
EST
Temp

°C
Wind Pressure Rain
since 9am
mm
Weather Cloud Vis
km
Sea
Height
m
Swell
Dir
 
Speed
knots
Gust
knots
hPa Trend Height
m
Period
s
Dir
23/11:30pm 12.4 W 18 22 1029.7 - 0.0 - - - - - - -
23/11:00pm 12.3 W 19 23 1029.6 - 0.0 - - - - - - -
23/10:30pm 12.3 W 19 23 1029.6 - 0.0 - - - - - - -
23/10:00pm 12.4 W 18 23 1029.6 - 0.0 - - - - - - -
23/09:30pm 12.4 W 19 24 1029.8 - 0.0 - - - - - - -
23/09:00pm 12.3 W 19 24 1029.9 - 0.0 Fine Cloudy 30 2 1.0 - S
23/08:30pm 12.4 W 18 23 1029.8 - 0.0 - - - - - - -
23/08:00pm 12.1 W 18 24 1029.7 - 0.0 - - - - - - -
23/07:30pm 12.2 W 18 24 1029.5 - 0.0 - - - - - - -
23/07:00pm 12.2 W 17 21 1029.4 - 0.0 - - - - - - -
23/06:30pm 12.0 W 18 25 1029.3 - 0.0 - - - - - - -
23/06:00pm 11.6 W 18 22 1029.2 - 0.0 - - - - - - -
23/05:30pm 11.6 W 19 23 1029.2 - 0.0 - - - - - - -
23/05:00pm 11.9 W 19 23 1029.1 - 0.0 - - - - - - -
23/04:30pm 12.1 W 18 22 1029.1 - 0.0 - - - - - - -
23/04:00pm 12.6 W 19 24 1029.0 - 0.0 - - - - - - -
23/03:30pm 12.8 WSW 21 26 1028.8 - 0.0 - - - - - - -
23/03:00pm 13.1 WSW 20 25 1028.6 - 0.0 Fine Mostly cloudy 30 2 1.0 - S
23/02:30pm 13.3 WSW 20 25 1028.6 - 0.0 - - - - - - -
23/02:00pm 13.5 WSW 19 23 1028.4 - 0.0 - - - - - - -
23/01:30pm 13.5 WSW 19 24 1028.5 - 0.0 - - - - - - -
23/01:00pm 13.6 WSW 18 23 1028.7 - 0.0 - - - - - - -
23/12:30pm 13.4 WSW 19 25 1028.8 - 0.0 - - - - - - -
23/12:00pm 13.1 W 20 25 1029.2 - 0.0 - - - - - - -
23/11:30am 13.0 W 19 24 1029.5 - 0.0 - - - - - - -
23/11:00am 12.9 W 20 25 1029.7 - 0.0 - - - - - - -
23/10:30am 12.3 W 21 26 1029.8 - 0.0 - - - - - - -
23/10:00am 12.2 W 21 27 1029.8 - 0.0 - - - - - - -
23/09:30am 11.8 W 20 25 1029.8 - 0.0 - - - - - - -
23/09:00am 11.8 W 20 28 1029.9 - 4.8 Fine Cloudy 30 2 1.0 - S
23/08:30am 11.5 W 21 26 1029.5 - 4.8 - - - - - - -
23/08:00am 11.1 W 21 26 1029.4 - 4.8 - - - - - - -
23/07:30am 11.0 W 22 27 1029.2 - 4.8 - - - - - - -
23/07:00am 10.8 W 23 29 1029.0 - 4.8 - - - - - - -
23/06:30am 10.9 W 21 27 1028.7 - 4.8 - - - - - - -
23/06:00am 10.8 W 21 27 1028.2 - 4.8 - - - - - - -
23/05:30am 10.8 W 21 26 1028.2 - 4.8 - - - - - - -
23/05:00am 10.8 W 19 24 1028.0 - 4.8 - - - - - - -
23/04:30am 10.9 W 20 24 1028.0 - 4.8 - - - - - - -
23/04:00am 10.8 W 23 28 1028.0 - 4.8 - - - - - - -
23/03:30am 11.3 W 22 27 1028.1 - 4.8 - - - - - - -
23/03:00am 11.7 W 19 24 1028.0 - 4.8 Fine Partly cloudy 40 3 1.0 - SE
23/02:30am 12.1 W 20 24 1028.0 - 4.8 - - - - - - -
23/02:00am 12.6 WSW 19 27 1028.1 - 4.8 - - - - - - -
23/01:30am 12.4 WSW 20 25 1028.0 - 4.8 - - - - - - -
23/01:00am 12.0 W 18 21 1028.1 - 4.8 - - - - - - -
23/12:30am 12.4 W 19 24 1028.1 - 4.8 - - - - - - -
23/12:00am 11.9 W 21 24 1028.2 - 4.8 - - - - - - -
 
Date/Time
EST
Temp

°C
Wind Pressure Rain
since 9am
mm
Weather Cloud Vis
km
Sea
Height
m
Swell
Dir
 
Speed
knots
Gust
knots
hPa Trend Height
m
Period
s
Dir
22/11:30pm 12.2 W 19 23 1028.2 - 4.8 - - - - - - -
22/11:00pm 12.6 W 17 21 1028.1 - 4.8 - - - - - - -
22/10:30pm 12.4 W 16 20 1028.2 - 4.8 - - - - - - -
22/10:00pm 12.5 W 14 17 1028.3 - 4.8 - - - - - - -
22/09:30pm 12.7 W 14 18 1028.3 - 4.8 - - - - - - -
22/09:12pm 13.0 W 14 23 1028.3 - 4.8 - - - - - - -
22/09:00pm 14.1 SW 22 28 1028.2 - 4.8 Fine Mostly cloudy 20 3 1.0 - SE
22/08:30pm 13.9 SW 23 28 1028.1 - 4.8 - - - - - - -
22/08:00pm 13.9 SW 23 29 1028.0 - 4.8 - - - - - - -
22/07:30pm 13.7 SW 23 27 1028.0 - 4.8 - - - - - - -
22/07:00pm 13.7 SW 22 27 1027.8 - 4.8 - - - - - - -
22/06:30pm 13.9 SW 23 28 1027.5 - 4.6 - - - - - - -
22/06:00pm 13.8 SW 25 29 1027.2 - 4.6 - - - - - - -
22/05:30pm 13.8 SW 26 31 1027.0 - 4.6 - - - - - - -
22/05:00pm 13.0 SSW 24 27 1027.0 - 4.6 - - - - - - -
22/04:30pm 12.9 SSW 26 32 1026.7 - 4.6 - - - - - - -
22/04:00pm 13.5 SSW 27 31 1026.5 - 4.2 - - - - - - -
22/03:30pm 14.0 SSW 26 30 1026.0 - 4.2 - - - - - - -
22/03:00pm 12.9 S 17 21 1025.7 - 4.0 Showers Mostly cloudy 0 3 4.0 - SE
22/02:30pm 12.7 SSW 23 27 1025.7 - 3.8 - - - - - - -
22/02:05pm 12.6 SSW 17 29 1025.5 - 3.4 - - - - - - -
22/02:00pm 12.8 SSW 17 25 1025.4 - 3.0 - - - - - - -
22/01:30pm 13.8 SW 22 27 1025.4 - 0.0 - - - - - - -
22/01:00pm 15.0 SSW 22 27 1025.3 - 0.0 - - - - - - -
22/12:30pm 15.2 SSW 21 24 1025.4 - 0.0 - - - - - - -
22/12:00pm 13.8 SSW 17 21 1025.9 - 0.0 - - - - - - -
22/11:32am 14.8 S 18 28 1025.9 - 0.0 - - - - - - -
22/11:30am 14.6 S 17 23 1026.0 - 0.0 - - - - - - -
22/11:00am 14.8 S 17 29 1026.1 - 0.0 - - - - - - -
22/10:51am 13.9 S 20 30 1026.2 - 0.0 - - - - - - -
22/10:30am 14.9 SSW 22 27 1025.9 - 0.0 - - - - - - -
22/10:00am 15.0 S 19 24 1025.8 - 0.0 - - - - - - -
22/09:30am 14.6 S 15 22 1025.5 - 0.0 - - - - - - -
22/09:24am 14.1 S 19 29 1025.6 - 0.0 - - - - - - -
22/09:00am 14.1 S 22 24 1025.5 - 13.8 Fine Cloudy 30 3 1.0 - S
22/08:30am 14.2 S 18 23 1025.2 - 13.8 - - - - - - -
22/08:00am 13.7 S 18 26 1025.1 - 13.8 - - - - - - -
22/07:52am 13.4 SSE 21 26 1025.0 - 13.8 - - - - - - -
22/07:30am 13.9 S 23 30 1024.7 - 13.8 - - - - - - -
22/07:19am 14.7 S 21 24 1024.3 - 13.8 - - - - - - -
22/07:00am 15.0 SSE 19 24 1024.0 - 13.8 - - - - - - -
22/06:30am 15.0 S 19 25 1023.6 - 13.8 - - - - - - -
22/06:00am 15.1 S 17 22 1023.2 - 13.8 - - - - - - -
22/05:30am 15.2 S 17 21 1022.9 - 13.8 - - - - - - -
22/05:00am 15.1 S 19 23 1022.7 - 13.8 - - - - - - -
22/04:30am 14.9 S 20 25 1022.7 - 13.8 - - - - - - -
22/04:00am 15.0 S 21 27 1022.7 - 13.8 - - - - - - -
22/03:30am 15.1 S 20 25 1022.7 - 13.8 - - - - - - -
22/03:00am 15.0 S 21 25 1022.7 - 13.8 Fine Mostly cloudy 30 3 1.0 - S
22/02:30am 15.1 S 21 25 1022.8 - 13.8 - - - - - - -
22/02:00am 14.6 SSE 20 27 1022.8 - 13.8 - - - - - - -
22/01:30am 14.7 SSE 21 25 1022.7 - 13.4 - - - - - - -
22/01:00am 15.0 SSE 21 27 1022.7 - 13.2 - - - - - - -
22/12:30am 14.9 SSE 22 28 1022.6 - 12.8 - - - - - - -
22/12:00am 14.7 SSE 21 28 1022.5 - 12.8 - - - - - - -
 
Date/Time
EST
Temp

°C
Wind Pressure Rain
since 9am
mm
Weather Cloud Vis
km
Sea
Height
m
Swell
Dir
 
Speed
knots
Gust
knots
hPa Trend Height
m
Period
s
Dir
21/11:30pm 15.0 SSE 22 28 1022.4 - 12.8 - - - - - - -
21/11:00pm 14.8 SSE 18 24 1022.4 - 12.8 - - - - - - -
21/10:30pm 15.2 SSE 19 23 1022.4 - 12.8 - - - - - - -
21/10:00pm 15.4 S 18 22 1022.4 - 12.8 - - - - - - -
21/09:30pm 15.3 SSE 18 23 1022.3 - 12.8 - - - - - - -
21/09:00pm 15.6 SSE 19 22 1022.1 - 12.4 Showers Cloudy 0 3 1.0 - S
21/08:30pm 15.8 SSE 18 23 1021.9 - 12.4 - - - - - - -
21/08:00pm 15.3 SSE 14 21 1021.7 - 12.4 - - - - - - -
21/07:54pm 15.0 SE 15 25 1021.8 - 12.4 - - - - - - -
21/07:30pm 15.6 SSE 19 24 1021.6 - 12.0 - - - - - - -
21/07:00pm 15.4 SSE 21 27 1021.4 - 12.0 - - - - - - -
21/06:30pm 15.8 SSE 20 25 1021.2 - 11.8 - - - - - - -
21/06:00pm 14.2 SSE 10 24 1021.1 - 11.8 - - - - - - -
21/05:30pm 13.6 WSW 17 21 1020.9 - 4.6 - - - - - - -
21/05:00pm 13.7 WSW 19 23 1020.7 - 0.4 - - - - - - -
21/04:30pm 14.0 WSW 19 24 1020.4 - 0.0 - - - - - - -
21/04:00pm 14.4 SW 19 23 1020.3 - 0.0 - - - - - - -
21/03:30pm 14.5 SW 22 26 1020.0 - 0.0 - - - - - - -
21/03:00pm 14.8 SW 20 23 1019.9 - 0.0 Fine Mostly cloudy 50 2 1.0 - S
21/02:30pm 15.0 SW 19 22 1019.8 - 0.0 - - - - - - -
21/02:00pm 15.1 SW 19 22 1019.7 - 0.0 - - - - - - -
21/01:30pm 15.5 SW 18 21 1019.8 - 0.0 - - - - - - -
21/01:00pm 15.4 SW 15 17 1020.1 - 0.0 - - - - - - -
21/12:30pm 15.4 SW 13 16 1020.3 - 0.0 - - - - - - -
21/12:00pm 15.4 SW 17 21 1020.6 - 0.0 - - - - - - -
21/11:30am 15.0 SW 16 19 1020.7 - 0.0 - - - - - - -
21/11:00am 15.9 WSW 14 17 1020.7 - 0.0 - - - - - - -
21/10:30am 15.3 WSW 16 20 1020.6 - 0.0 - - - - - - -
21/10:00am 15.1 WSW 16 18 1020.4 - 0.0 - - - - - - -
21/09:30am 13.4 W 11 13 1020.3 - 0.0 - - - - - - -
21/09:00am 12.9 W 12 14 1020.1 - 0.0 Fine Mostly cloudy 50 1 1.0 - S
21/08:30am 12.8 W 12 14 1019.9 - 0.0 - - - - - - -
21/08:00am 12.7 W 11 13 1019.5 - 0.0 - - - - - - -
21/07:30am 12.9 WNW 10 12 1019.0 - 0.0 - - - - - - -
21/07:00am 12.6 W 10 13 1018.6 - 0.0 - - - - - - -
21/06:30am 12.6 WNW 9 11 1018.3 - 0.0 - - - - - - -
21/06:00am 12.8 WNW 10 13 1017.8 - 0.0 - - - - - - -
21/05:30am 12.9 W 10 12 1017.5 - 0.0 - - - - - - -
21/05:00am 13.1 WNW 10 11 1017.2 - 0.0 - - - - - - -
21/04:30am 12.9 WNW 9 13 1016.8 - 0.0 - - - - - - -
21/04:00am 13.1 W 10 13 1016.6 - 0.0 - - - - - - -
21/03:30am 13.0 WNW 9 11 1016.6 - 0.0 - - - - - - -
21/03:00am 13.0 WNW 8 11 1016.5 - 0.0 Fine Mostly clear 50 <0.5 1.0 - NE
21/02:30am 13.3 W 9 10 1016.5 - 0.0 - - - - - - -
21/02:00am 13.4 W 9 11 1016.5 - 0.0 - - - - - - -
21/01:30am 13.5 W 10 11 1016.1 - 0.0 - - - - - - -

Other Formats:

Comma delimited format used in spreadsheet applications
http://www.bom.gov.au/fwo/IDT60701/IDT60701.94933.axf

JavaScript Object Notation format (JSON) in row-major order
http://www.bom.gov.au/fwo/IDT60701/IDT60701.94933.json